Thurmond, West Virginia
Current Conditions -  °F | °C
As of 10:51 AM on Wednesday 22 Oct 2014 (Local Time) from KBKW Reporting Station
Haze Haze  
Wind Chill: 37°   Ceiling: 200
Heat Index: 42°   Visibility: 2.5mi
Dew Point: 40°   Wind: 9mph
Humidity: 92%   Direction: 320°NW
Pressure: 30.15"   Gusts: NA
Location:  37.96°N, 81.08°W
Report Text: KBKW 221451Z AUTO 32008KT 2 1/2SM BR OVC002 06/04 A3015 RMK AO2 RAB36E50 CIG 002V006 SLP219 P0000 60001 T00560044 53007 TSNO
Loading
Personal Weather Stations






























Interactive Weather Map
Tropical Storm Tracking
New forecast layout! Learn more

10-Day Weather Forecast

Advertisements
Track Severe Weather on mobile